sensor_id;sensor_type;location;lat;lon;timestamp;temperature;humidity
2721;DHT22;1368;49.484;11.112;2023-12-29T00:02:20;11.10;99.90
2721;DHT22;1368;49.484;11.112;2023-12-29T00:04:45;11.00;99.90
2721;DHT22;1368;49.484;11.112;2023-12-29T00:07:11;10.70;99.90
2721;DHT22;1368;49.484;11.112;2023-12-29T00:09:37;10.70;99.90
2721;DHT22;1368;49.484;11.112;2023-12-29T00:12:07;10.80;99.90
2721;DHT22;1368;49.484;11.112;2023-12-29T00:14:33;10.90;99.90
2721;DHT22;1368;49.484;11.112;2023-12-29T00:16:59;10.90;99.90
2721;DHT22;1368;49.484;11.112;2023-12-29T00:19:25;11.00;99.90
2721;DHT22;1368;49.484;11.112;2023-12-29T00:21:51;11.00;99.90
2721;DHT22;1368;49.484;11.112;2023-12-29T00:24:16;10.80;99.90
2721;DHT22;1368;49.484;11.112;2023-12-29T00:26:42;10.80;99.90
2721;DHT22;1368;49.484;11.112;2023-12-29T00:29:08;10.80;99.90
2721;DHT22;1368;49.484;11.112;2023-12-29T00:31:33;10.70;99.90
2721;DHT22;1368;49.484;11.112;2023-12-29T00:33:59;10.70;99.90
2721;DHT22;1368;49.484;11.112;2023-12-29T00:36:25;10.20;99.90
2721;DHT22;1368;49.484;11.112;2023-12-29T00:38:50;10.20;99.90
2721;DHT22;1368;49.484;11.112;2023-12-29T00:41:16;10.30;99.90
2721;DHT22;1368;49.484;11.112;2023-12-29T00:43:41;10.30;99.90
2721;DHT22;1368;49.484;11.112;2023-12-29T00:46:07;10.20;99.90
2721;DHT22;1368;49.484;11.112;2023-12-29T00:48:34;9.80;99.90
2721;DHT22;1368;49.484;11.112;2023-12-29T00:51:03;9.90;99.90
2721;DHT22;1368;49.484;11.112;2023-12-29T00:53:29;10.00;99.90
2721;DHT22;1368;49.484;11.112;2023-12-29T00:55:57;9.80;99.90
2721;DHT22;1368;49.484;11.112;2023-12-29T00:58:22;9.80;99.90
2721;DHT22;1368;49.484;11.112;2023-12-29T01:00:48;10.00;99.90
2721;DHT22;1368;49.484;11.112;2023-12-29T01:03:14;9.90;99.90
2721;DHT22;1368;49.484;11.112;2023-12-29T01:05:39;10.00;99.90
2721;DHT22;1368;49.484;11.112;2023-12-29T01:08:05;10.10;99.90
2721;DHT22;1368;49.484;11.112;2023-12-29T01:10:30;9.90;99.90
2721;DHT22;1368;49.484;11.112;2023-12-29T01:12:56;10.10;99.90
2721;DHT22;1368;49.484;11.112;2023-12-29T01:15:21;10.30;99.90
2721;DHT22;1368;49.484;11.112;2023-12-29T01:17:47;10.50;99.90
2721;DHT22;1368;49.484;11.112;2023-12-29T01:20:13;10.40;99.90
2721;DHT22;1368;49.484;11.112;2023-12-29T01:22:38;10.60;99.90
2721;DHT22;1368;49.484;11.112;2023-12-29T01:25:04;10.60;99.90
2721;DHT22;1368;49.484;11.112;2023-12-29T01:27:30;10.70;99.90
2721;DHT22;1368;49.484;11.112;2023-12-29T01:29:55;10.90;99.90
2721;DHT22;1368;49.484;11.112;2023-12-29T01:32:21;11.00;99.90
2721;DHT22;1368;49.484;11.112;2023-12-29T01:34:47;11.00;99.90
2721;DHT22;1368;49.484;11.112;2023-12-29T01:37:12;11.00;99.90
2721;DHT22;1368;49.484;11.112;2023-12-29T01:42:13;11.10;99.90
2721;DHT22;1368;49.484;11.112;2023-12-29T01:44:39;11.00;99.90
2721;DHT22;1368;49.484;11.112;2023-12-29T01:47:11;10.90;99.90
2721;DHT22;1368;49.484;11.112;2023-12-29T01:49:39;10.70;99.90
2721;DHT22;1368;49.484;11.112;2023-12-29T01:52:05;10.60;99.90
2721;DHT22;1368;49.484;11.112;2023-12-29T01:54:34;10.70;99.90
2721;DHT22;1368;49.484;11.112;2023-12-29T01:57:02;10.90;99.90
2721;DHT22;1368;49.484;11.112;2023-12-29T01:59:28;11.00;99.90
2721;DHT22;1368;49.484;11.112;2023-12-29T02:01:54;11.00;99.90
2721;DHT22;1368;49.484;11.112;2023-12-29T02:04:23;11.10;99.90
2721;DHT22;1368;49.484;11.112;2023-12-29T02:06:48;11.10;99.90
2721;DHT22;1368;49.484;11.112;2023-12-29T02:09:15;11.10;99.90
2721;DHT22;1368;49.484;11.112;2023-12-29T02:11:42;11.10;99.90
2721;DHT22;1368;49.484;11.112;2023-12-29T02:14:08;11.20;99.90
2721;DHT22;1368;49.484;11.112;2023-12-29T02:16:40;10.80;99.90
2721;DHT22;1368;49.484;11.112;2023-12-29T02:22:05;10.80;99.90
2721;DHT22;1368;49.484;11.112;2023-12-29T02:24:31;10.80;99.90
2721;DHT22;1368;49.484;11.112;2023-12-29T02:27:07;10.60;99.90
2721;DHT22;1368;49.484;11.112;2023-12-29T02:29:38;10.50;99.90
2721;DHT22;1368;49.484;11.112;2023-12-29T02:32:06;10.40;99.90
2721;DHT22;1368;49.484;11.112;2023-12-29T02:34:34;10.30;99.90
2721;DHT22;1368;49.484;11.112;2023-12-29T02:37:01;10.30;99.90
2721;DHT22;1368;49.484;11.112;2023-12-29T02:39:27;10.40;99.90
2721;DHT22;1368;49.484;11.112;2023-12-29T02:41:53;10.40;99.90
2721;DHT22;1368;49.484;11.112;2023-12-29T02:44:19;10.20;99.90
2721;DHT22;1368;49.484;11.112;2023-12-29T02:46:44;10.10;99.90
2721;DHT22;1368;49.484;11.112;2023-12-29T02:49:10;10.30;99.90
2721;DHT22;1368;49.484;11.112;2023-12-29T02:51:38;10.50;99.90
2721;DHT22;1368;49.484;11.112;2023-12-29T02:54:05;9.50;99.90
2721;DHT22;1368;49.484;11.112;2023-12-29T02:56:31;9.60;99.90
2721;DHT22;1368;49.484;11.112;2023-12-29T02:58:57;9.40;99.90
2721;DHT22;1368;49.484;11.112;2023-12-29T03:01:22;9.40;99.90
2721;DHT22;1368;49.484;11.112;2023-12-29T03:03:48;9.40;99.90
2721;DHT22;1368;49.484;11.112;2023-12-29T03:06:13;9.20;99.90
2721;DHT22;1368;49.484;11.112;2023-12-29T03:08:39;9.00;99.90
2721;DHT22;1368;49.484;11.112;2023-12-29T03:11:04;8.90;99.90
2721;DHT22;1368;49.484;11.112;2023-12-29T03:13:30;8.80;99.90
2721;DHT22;1368;49.484;11.112;2023-12-29T03:15:55;8.60;99.90
2721;DHT22;1368;49.484;11.112;2023-12-29T03:18:21;8.80;99.90
2721;DHT22;1368;49.484;11.112;2023-12-29T03:20:46;8.90;99.90
2721;DHT22;1368;49.484;11.112;2023-12-29T03:23:12;9.00;99.90
2721;DHT22;1368;49.484;11.112;2023-12-29T03:25:37;9.10;99.90
2721;DHT22;1368;49.484;11.112;2023-12-29T03:28:03;8.90;99.90
2721;DHT22;1368;49.484;11.112;2023-12-29T03:30:28;9.00;99.90
2721;DHT22;1368;49.484;11.112;2023-12-29T03:32:54;8.70;99.90
2721;DHT22;1368;49.484;11.112;2023-12-29T03:35:19;8.70;99.90
2721;DHT22;1368;49.484;11.112;2023-12-29T03:37:45;8.70;99.90
2721;DHT22;1368;49.484;11.112;2023-12-29T03:40:11;8.70;99.90
2721;DHT22;1368;49.484;11.112;2023-12-29T03:42:38;8.60;99.90
2721;DHT22;1368;49.484;11.112;2023-12-29T03:45:04;8.50;99.90
2721;DHT22;1368;49.484;11.112;2023-12-29T03:47:30;8.50;99.90
2721;DHT22;1368;49.484;11.112;2023-12-29T03:49:57;8.70;99.90
2721;DHT22;1368;49.484;11.112;2023-12-29T03:52:22;8.60;99.90
2721;DHT22;1368;49.484;11.112;2023-12-29T03:54:48;8.50;99.90
2721;DHT22;1368;49.484;11.112;2023-12-29T03:57:13;8.40;99.90
2721;DHT22;1368;49.484;11.112;2023-12-29T03:59:39;8.30;99.90
2721;DHT22;1368;49.484;11.112;2023-12-29T04:02:04;8.20;99.90
2721;DHT22;1368;49.484;11.112;2023-12-29T04:04:30;8.10;99.90
2721;DHT22;1368;49.484;11.112;2023-12-29T04:06:56;8.20;99.90
2721;DHT22;1368;49.484;11.112;2023-12-29T04:09:21;8.30;99.90
2721;DHT22;1368;49.484;11.112;2023-12-29T04:11:47;8.60;99.90
2721;DHT22;1368;49.484;11.112;2023-12-29T04:14:12;8.70;99.90
2721;DHT22;1368;49.484;11.112;2023-12-29T04:16:39;8.80;99.90
2721;DHT22;1368;49.484;11.112;2023-12-29T04:19:05;9.10;99.90
2721;DHT22;1368;49.484;11.112;2023-12-29T04:21:30;9.20;99.90
2721;DHT22;1368;49.484;11.112;2023-12-29T04:23:56;9.00;99.90
2721;DHT22;1368;49.484;11.112;2023-12-29T04:26:21;9.00;99.90
2721;DHT22;1368;49.484;11.112;2023-12-29T04:28:47;8.90;99.90
2721;DHT22;1368;49.484;11.112;2023-12-29T04:31:12;9.20;99.90
2721;DHT22;1368;49.484;11.112;2023-12-29T04:33:38;9.30;99.90
2721;DHT22;1368;49.484;11.112;2023-12-29T04:36:03;9.40;99.90
2721;DHT22;1368;49.484;11.112;2023-12-29T04:38:29;9.30;99.90
2721;DHT22;1368;49.484;11.112;2023-12-29T04:40:55;9.00;99.90
2721;DHT22;1368;49.484;11.112;2023-12-29T04:43:20;8.90;99.90
2721;DHT22;1368;49.484;11.112;2023-12-29T04:45:46;8.70;99.90
2721;DHT22;1368;49.484;11.112;2023-12-29T04:48:11;8.90;99.90
2721;DHT22;1368;49.484;11.112;2023-12-29T04:50:37;9.10;99.90
2721;DHT22;1368;49.484;11.112;2023-12-29T04:53:03;9.30;99.90
2721;DHT22;1368;49.484;11.112;2023-12-29T04:55:28;9.40;99.90
2721;DHT22;1368;49.484;11.112;2023-12-29T04:57:54;9.50;99.90
2721;DHT22;1368;49.484;11.112;2023-12-29T05:00:21;9.30;99.90
2721;DHT22;1368;49.484;11.112;2023-12-29T05:02:46;9.40;99.90
2721;DHT22;1368;49.484;11.112;2023-12-29T05:05:12;9.50;99.90
2721;DHT22;1368;49.484;11.112;2023-12-29T05:07:37;9.60;99.90
2721;DHT22;1368;49.484;11.112;2023-12-29T05:10:03;9.60;99.90
2721;DHT22;1368;49.484;11.112;2023-12-29T05:12:29;9.80;99.90
2721;DHT22;1368;49.484;11.112;2023-12-29T05:14:55;9.80;99.90
2721;DHT22;1368;49.484;11.112;2023-12-29T05:17:21;9.80;99.90
2721;DHT22;1368;49.484;11.112;2023-12-29T05:19:46;9.90;99.90
2721;DHT22;1368;49.484;11.112;2023-12-29T05:22:12;9.90;99.90
2721;DHT22;1368;49.484;11.112;2023-12-29T05:24:41;9.80;99.90
2721;DHT22;1368;49.484;11.112;2023-12-29T05:27:07;9.40;99.90
2721;DHT22;1368;49.484;11.112;2023-12-29T05:29:32;9.40;99.90
2721;DHT22;1368;49.484;11.112;2023-12-29T05:31:58;9.10;99.90
2721;DHT22;1368;49.484;11.112;2023-12-29T05:34:24;8.70;99.90
2721;DHT22;1368;49.484;11.112;2023-12-29T05:36:49;8.50;99.90
2721;DHT22;1368;49.484;11.112;2023-12-29T05:39:15;8.40;99.90
2721;DHT22;1368;49.484;11.112;2023-12-29T05:41:41;8.10;99.90
2721;DHT22;1368;49.484;11.112;2023-12-29T05:44:06;8.20;99.90
2721;DHT22;1368;49.484;11.112;2023-12-29T05:46:32;7.90;99.90
2721;DHT22;1368;49.484;11.112;2023-12-29T05:48:57;7.90;99.90
2721;DHT22;1368;49.484;11.112;2023-12-29T05:51:23;7.90;99.90
2721;DHT22;1368;49.484;11.112;2023-12-29T05:53:48;8.00;99.90
2721;DHT22;1368;49.484;11.112;2023-12-29T05:56:15;7.70;99.90
2721;DHT22;1368;49.484;11.112;2023-12-29T05:58:41;8.00;99.90
2721;DHT22;1368;49.484;11.112;2023-12-29T06:01:10;7.60;99.90
2721;DHT22;1368;49.484;11.112;2023-12-29T06:03:36;7.50;99.90
2721;DHT22;1368;49.484;11.112;2023-12-29T06:06:02;7.60;99.90
2721;DHT22;1368;49.484;11.112;2023-12-29T06:08:27;7.30;99.90
2721;DHT22;1368;49.484;11.112;2023-12-29T06:10:53;7.60;99.90
2721;DHT22;1368;49.484;11.112;2023-12-29T06:13:19;8.00;99.90
2721;DHT22;1368;49.484;11.112;2023-12-29T06:15:44;7.20;99.90
2721;DHT22;1368;49.484;11.112;2023-12-29T06:18:10;7.10;99.90
2721;DHT22;1368;49.484;11.112;2023-12-29T06:20:35;7.00;99.90
2721;DHT22;1368;49.484;11.112;2023-12-29T06:23:01;7.60;99.90
2721;DHT22;1368;49.484;11.112;2023-12-29T06:25:27;6.90;99.90
2721;DHT22;1368;49.484;11.112;2023-12-29T06:27:53;7.00;99.90
2721;DHT22;1368;49.484;11.112;2023-12-29T06:30:19;7.70;99.90
2721;DHT22;1368;49.484;11.112;2023-12-29T06:32:45;7.30;99.90
2721;DHT22;1368;49.484;11.112;2023-12-29T06:35:11;7.50;99.90
2721;DHT22;1368;49.484;11.112;2023-12-29T06:37:37;7.90;99.90
2721;DHT22;1368;49.484;11.112;2023-12-29T06:40:05;7.50;99.90
2721;DHT22;1368;49.484;11.112;2023-12-29T06:42:31;7.70;99.90
2721;DHT22;1368;49.484;11.112;2023-12-29T06:44:56;7.90;99.90
2721;DHT22;1368;49.484;11.112;2023-12-29T06:47:22;8.20;99.90
2721;DHT22;1368;49.484;11.112;2023-12-29T06:49:48;8.10;99.90
2721;DHT22;1368;49.484;11.112;2023-12-29T06:52:13;8.00;99.90
2721;DHT22;1368;49.484;11.112;2023-12-29T06:54:39;8.30;99.90
2721;DHT22;1368;49.484;11.112;2023-12-29T06:57:04;8.20;99.90
2721;DHT22;1368;49.484;11.112;2023-12-29T06:59:30;8.80;99.90
2721;DHT22;1368;49.484;11.112;2023-12-29T07:01:56;8.50;99.90
2721;DHT22;1368;49.484;11.112;2023-12-29T07:04:21;8.40;99.90
2721;DHT22;1368;49.484;11.112;2023-12-29T07:06:47;8.50;99.90
2721;DHT22;1368;49.484;11.112;2023-12-29T07:09:13;8.60;99.90
2721;DHT22;1368;49.484;11.112;2023-12-29T07:11:38;9.30;99.90
2721;DHT22;1368;49.484;11.112;2023-12-29T07:14:04;9.20;99.90
2721;DHT22;1368;49.484;11.112;2023-12-29T07:16:29;10.00;99.90
2721;DHT22;1368;49.484;11.112;2023-12-29T07:18:55;9.30;99.90
2721;DHT22;1368;49.484;11.112;2023-12-29T07:21:21;9.50;99.90
2721;DHT22;1368;49.484;11.112;2023-12-29T07:23:46;9.30;99.90
2721;DHT22;1368;49.484;11.112;2023-12-29T07:26:12;8.90;99.90
2721;DHT22;1368;49.484;11.112;2023-12-29T07:28:37;8.90;99.90
2721;DHT22;1368;49.484;11.112;2023-12-29T07:31:03;8.90;99.90
2721;DHT22;1368;49.484;11.112;2023-12-29T07:33:30;9.30;99.90
2721;DHT22;1368;49.484;11.112;2023-12-29T07:35:55;9.40;99.90
2721;DHT22;1368;49.484;11.112;2023-12-29T07:38:21;9.20;99.90
2721;DHT22;1368;49.484;11.112;2023-12-29T07:40:46;9.50;99.90
2721;DHT22;1368;49.484;11.112;2023-12-29T07:43:13;9.50;99.90
2721;DHT22;1368;49.484;11.112;2023-12-29T07:45:39;9.40;99.90
2721;DHT22;1368;49.484;11.112;2023-12-29T07:48:05;9.70;99.90
2721;DHT22;1368;49.484;11.112;2023-12-29T07:50:31;9.80;99.90
2721;DHT22;1368;49.484;11.112;2023-12-29T07:52:56;9.80;99.90
2721;DHT22;1368;49.484;11.112;2023-12-29T07:55:22;9.90;99.90
2721;DHT22;1368;49.484;11.112;2023-12-29T07:57:47;10.20;99.90
2721;DHT22;1368;49.484;11.112;2023-12-29T08:00:16;10.30;99.90
2721;DHT22;1368;49.484;11.112;2023-12-29T08:02:42;10.10;99.90
2721;DHT22;1368;49.484;11.112;2023-12-29T08:05:07;10.10;99.90
2721;DHT22;1368;49.484;11.112;2023-12-29T08:07:37;10.30;99.90
2721;DHT22;1368;49.484;11.112;2023-12-29T08:10:06;10.40;99.90
2721;DHT22;1368;49.484;11.112;2023-12-29T08:12:32;10.30;99.90
2721;DHT22;1368;49.484;11.112;2023-12-29T08:15:01;10.50;99.90
2721;DHT22;1368;49.484;11.112;2023-12-29T08:17:28;10.50;99.90
2721;DHT22;1368;49.484;11.112;2023-12-29T08:19:53;10.70;99.90
2721;DHT22;1368;49.484;11.112;2023-12-29T08:22:22;10.70;99.90
2721;DHT22;1368;49.484;11.112;2023-12-29T08:24:47;10.60;99.90
2721;DHT22;1368;49.484;11.112;2023-12-29T08:27:13;10.60;99.90
2721;DHT22;1368;49.484;11.112;2023-12-29T08:29:39;10.70;99.90
2721;DHT22;1368;49.484;11.112;2023-12-29T08:32:05;11.50;99.90
2721;DHT22;1368;49.484;11.112;2023-12-29T08:34:31;10.90;99.90
2721;DHT22;1368;49.484;11.112;2023-12-29T08:36:57;11.10;99.90
2721;DHT22;1368;49.484;11.112;2023-12-29T08:39:23;11.40;99.90
2721;DHT22;1368;49.484;11.112;2023-12-29T08:41:48;11.40;99.90
2721;DHT22;1368;49.484;11.112;2023-12-29T08:44:17;11.60;99.90
2721;DHT22;1368;49.484;11.112;2023-12-29T08:46:42;11.70;99.90
2721;DHT22;1368;49.484;11.112;2023-12-29T08:49:08;11.60;99.90
2721;DHT22;1368;49.484;11.112;2023-12-29T08:51:33;11.50;99.90
2721;DHT22;1368;49.484;11.112;2023-12-29T08:53:59;11.60;99.90
2721;DHT22;1368;49.484;11.112;2023-12-29T08:56:25;11.40;99.90
2721;DHT22;1368;49.484;11.112;2023-12-29T08:58:51;11.50;99.90
2721;DHT22;1368;49.484;11.112;2023-12-29T09:01:17;11.60;99.90
2721;DHT22;1368;49.484;11.112;2023-12-29T09:03:43;11.60;99.90
2721;DHT22;1368;49.484;11.112;2023-12-29T09:06:09;11.50;99.90
2721;DHT22;1368;49.484;11.112;2023-12-29T09:08:35;11.60;99.90
2721;DHT22;1368;49.484;11.112;2023-12-29T09:11:01;11.70;99.90
2721;DHT22;1368;49.484;11.112;2023-12-29T09:13:27;11.80;99.90
2721;DHT22;1368;49.484;11.112;2023-12-29T09:15:54;12.00;99.90
2721;DHT22;1368;49.484;11.112;2023-12-29T09:18:19;12.00;99.90
2721;DHT22;1368;49.484;11.112;2023-12-29T09:20:45;12.70;99.90
2721;DHT22;1368;49.484;11.112;2023-12-29T09:23:11;12.00;99.90
2721;DHT22;1368;49.484;11.112;2023-12-29T09:25:36;12.00;99.90
2721;DHT22;1368;49.484;11.112;2023-12-29T09:28:02;12.00;99.90
2721;DHT22;1368;49.484;11.112;2023-12-29T09:30:28;12.10;99.90
2721;DHT22;1368;49.484;11.112;2023-12-29T09:32:53;12.20;99.90
2721;DHT22;1368;49.484;11.112;2023-12-29T09:35:19;12.10;99.90
2721;DHT22;1368;49.484;11.112;2023-12-29T09:37:47;12.20;99.90
2721;DHT22;1368;49.484;11.112;2023-12-29T09:40:14;12.30;99.90
2721;DHT22;1368;49.484;11.112;2023-12-29T09:42:43;12.50;99.90
2721;DHT22;1368;49.484;11.112;2023-12-29T09:45:11;12.60;99.90
2721;DHT22;1368;49.484;11.112;2023-12-29T09:47:41;12.40;99.90
2721;DHT22;1368;49.484;11.112;2023-12-29T09:50:10;12.40;99.90
2721;DHT22;1368;49.484;11.112;2023-12-29T09:52:39;12.30;99.90
2721;DHT22;1368;49.484;11.112;2023-12-29T09:55:05;12.30;99.90
2721;DHT22;1368;49.484;11.112;2023-12-29T09:57:35;12.40;99.90
2721;DHT22;1368;49.484;11.112;2023-12-29T10:00:01;12.50;99.90
2721;DHT22;1368;49.484;11.112;2023-12-29T10:02:28;12.00;99.90
2721;DHT22;1368;49.484;11.112;2023-12-29T10:04:53;11.60;99.90
2721;DHT22;1368;49.484;11.112;2023-12-29T10:07:24;11.80;99.90
2721;DHT22;1368;49.484;11.112;2023-12-29T10:09:54;12.10;99.90
2721;DHT22;1368;49.484;11.112;2023-12-29T10:12:20;11.90;99.90
2721;DHT22;1368;49.484;11.112;2023-12-29T10:14:52;12.10;99.90
2721;DHT22;1368;49.484;11.112;2023-12-29T10:22:51;11.80;99.90
2721;DHT22;1368;49.484;11.112;2023-12-29T10:25:18;11.80;99.90
2721;DHT22;1368;49.484;11.112;2023-12-29T10:27:45;12.00;99.90
2721;DHT22;1368;49.484;11.112;2023-12-29T10:30:11;12.10;99.90
2721;DHT22;1368;49.484;11.112;2023-12-29T10:32:37;12.20;99.90
2721;DHT22;1368;49.484;11.112;2023-12-29T10:35:10;12.30;99.90
2721;DHT22;1368;49.484;11.112;2023-12-29T10:37:36;12.50;99.90
2721;DHT22;1368;49.484;11.112;2023-12-29T10:40:02;12.60;99.90
2721;DHT22;1368;49.484;11.112;2023-12-29T10:42:28;12.70;99.90
2721;DHT22;1368;49.484;11.112;2023-12-29T10:45:09;12.80;99.90
2721;DHT22;1368;49.484;11.112;2023-12-29T10:47:43;12.80;99.90
2721;DHT22;1368;49.484;11.112;2023-12-29T10:50:09;12.70;99.90
2721;DHT22;1368;49.484;11.112;2023-12-29T10:52:34;12.10;99.90
2721;DHT22;1368;49.484;11.112;2023-12-29T10:55:09;11.80;99.90
2721;DHT22;1368;49.484;11.112;2023-12-29T10:57:36;11.50;99.90
2721;DHT22;1368;49.484;11.112;2023-12-29T11:00:03;11.20;99.90
2721;DHT22;1368;49.484;11.112;2023-12-29T11:02:33;11.30;99.90
2721;DHT22;1368;49.484;11.112;2023-12-29T11:05:06;11.60;99.90
2721;DHT22;1368;49.484;11.112;2023-12-29T11:07:40;11.30;99.90
2721;DHT22;1368;49.484;11.112;2023-12-29T11:10:08;11.10;99.90
2721;DHT22;1368;49.484;11.112;2023-12-29T11:12:35;11.30;99.90
2721;DHT22;1368;49.484;11.112;2023-12-29T11:15:05;11.60;99.90
2721;DHT22;1368;49.484;11.112;2023-12-29T11:17:33;11.90;99.90
2721;DHT22;1368;49.484;11.112;2023-12-29T11:20:00;11.70;99.90
2721;DHT22;1368;49.484;11.112;2023-12-29T11:22:28;11.50;99.90
2721;DHT22;1368;49.484;11.112;2023-12-29T11:24:54;11.40;99.90
2721;DHT22;1368;49.484;11.112;2023-12-29T11:27:21;11.40;99.90
2721;DHT22;1368;49.484;11.112;2023-12-29T11:29:47;11.60;99.90
2721;DHT22;1368;49.484;11.112;2023-12-29T11:32:22;11.90;99.90
2721;DHT22;1368;49.484;11.112;2023-12-29T11:34:54;12.20;99.90
2721;DHT22;1368;49.484;11.112;2023-12-29T11:37:35;12.50;99.90
2721;DHT22;1368;49.484;11.112;2023-12-29T11:40:17;12.40;99.90
2721;DHT22;1368;49.484;11.112;2023-12-29T11:42:44;12.60;99.90
2721;DHT22;1368;49.484;11.112;2023-12-29T11:45:31;12.70;99.90
2721;DHT22;1368;49.484;11.112;2023-12-29T11:47:59;12.20;99.90
2721;DHT22;1368;49.484;11.112;2023-12-29T11:50:38;11.90;99.90
2721;DHT22;1368;49.484;11.112;2023-12-29T11:53:06;12.20;99.90
2721;DHT22;1368;49.484;11.112;2023-12-29T11:55:39;12.50;99.90
2721;DHT22;1368;49.484;11.112;2023-12-29T11:58:22;12.70;99.90
2721;DHT22;1368;49.484;11.112;2023-12-29T12:00:48;13.20;99.90
2721;DHT22;1368;49.484;11.112;2023-12-29T12:03:16;13.00;99.90
2721;DHT22;1368;49.484;11.112;2023-12-29T12:05:45;13.20;99.90
2721;DHT22;1368;49.484;11.112;2023-12-29T12:08:30;13.70;99.90
2721;DHT22;1368;49.484;11.112;2023-12-29T12:10:56;13.30;99.90
2721;DHT22;1368;49.484;11.112;2023-12-29T12:13:44;13.50;99.90
2721;DHT22;1368;49.484;11.112;2023-12-29T12:19:08;13.30;99.90
2721;DHT22;1368;49.484;11.112;2023-12-29T12:21:33;13.00;99.90
2721;DHT22;1368;49.484;11.112;2023-12-29T12:23:59;12.90;99.90
2721;DHT22;1368;49.484;11.112;2023-12-29T12:26:27;13.10;99.90
2721;DHT22;1368;49.484;11.112;2023-12-29T12:28:55;12.90;99.90
2721;DHT22;1368;49.484;11.112;2023-12-29T12:31:21;13.10;99.90
2721;DHT22;1368;49.484;11.112;2023-12-29T12:33:59;13.60;99.90
2721;DHT22;1368;49.484;11.112;2023-12-29T12:36:28;12.90;99.90
2721;DHT22;1368;49.484;11.112;2023-12-29T12:38:55;13.10;99.90
2721;DHT22;1368;49.484;11.112;2023-12-29T12:41:22;12.60;99.90
2721;DHT22;1368;49.484;11.112;2023-12-29T12:44:09;12.40;99.90
2721;DHT22;1368;49.484;11.112;2023-12-29T12:46:35;12.20;99.90
2721;DHT22;1368;49.484;11.112;2023-12-29T12:49:04;12.30;99.90
2721;DHT22;1368;49.484;11.112;2023-12-29T12:51:32;12.40;99.90
2721;DHT22;1368;49.484;11.112;2023-12-29T12:53:58;12.60;99.90
2721;DHT22;1368;49.484;11.112;2023-12-29T12:56:24;12.60;99.90
2721;DHT22;1368;49.484;11.112;2023-12-29T12:58:55;12.60;99.90
2721;DHT22;1368;49.484;11.112;2023-12-29T13:01:20;12.70;99.90
2721;DHT22;1368;49.484;11.112;2023-12-29T13:03:46;13.20;99.90
2721;DHT22;1368;49.484;11.112;2023-12-29T13:06:12;12.50;99.90
2721;DHT22;1368;49.484;11.112;2023-12-29T13:08:38;12.90;99.90
2721;DHT22;1368;49.484;11.112;2023-12-29T13:11:03;12.30;99.90
2721;DHT22;1368;49.484;11.112;2023-12-29T13:13:40;12.30;99.90
2721;DHT22;1368;49.484;11.112;2023-12-29T13:16:05;12.20;99.90
2721;DHT22;1368;49.484;11.112;2023-12-29T13:18:31;12.20;99.90
2721;DHT22;1368;49.484;11.112;2023-12-29T13:20:57;12.30;99.90
2721;DHT22;1368;49.484;11.112;2023-12-29T13:23:27;12.30;99.90
2721;DHT22;1368;49.484;11.112;2023-12-29T13:25:59;12.30;99.90
2721;DHT22;1368;49.484;11.112;2023-12-29T13:28:27;12.30;99.90
2721;DHT22;1368;49.484;11.112;2023-12-29T13:30:53;12.60;99.90
2721;DHT22;1368;49.484;11.112;2023-12-29T13:33:46;13.20;99.90
2721;DHT22;1368;49.484;11.112;2023-12-29T13:36:24;13.20;99.90
2721;DHT22;1368;49.484;11.112;2023-12-29T13:38:55;13.40;99.90
2721;DHT22;1368;49.484;11.112;2023-12-29T13:41:22;13.40;99.90
2721;DHT22;1368;49.484;11.112;2023-12-29T13:43:48;13.50;99.90
2721;DHT22;1368;49.484;11.112;2023-12-29T13:46:16;14.20;99.90
2721;DHT22;1368;49.484;11.112;2023-12-29T13:48:43;13.50;99.90
2721;DHT22;1368;49.484;11.112;2023-12-29T13:51:09;13.30;99.90
2721;DHT22;1368;49.484;11.112;2023-12-29T13:53:35;13.20;99.90
2721;DHT22;1368;49.484;11.112;2023-12-29T13:56:10;13.30;99.90
2721;DHT22;1368;49.484;11.112;2023-12-29T13:58:36;13.20;99.90
2721;DHT22;1368;49.484;11.112;2023-12-29T14:01:06;13.10;99.90
2721;DHT22;1368;49.484;11.112;2023-12-29T14:03:58;13.00;99.90
2721;DHT22;1368;49.484;11.112;2023-12-29T14:06:51;13.00;99.90
2721;DHT22;1368;49.484;11.112;2023-12-29T14:09:17;12.80;99.90
2721;DHT22;1368;49.484;11.112;2023-12-29T14:11:47;12.70;99.90
2721;DHT22;1368;49.484;11.112;2023-12-29T14:14:13;12.70;99.90
2721;DHT22;1368;49.484;11.112;2023-12-29T14:16:40;13.40;99.90
2721;DHT22;1368;49.484;11.112;2023-12-29T14:19:05;12.70;99.90
2721;DHT22;1368;49.484;11.112;2023-12-29T14:21:32;12.70;99.90
2721;DHT22;1368;49.484;11.112;2023-12-29T14:24:00;12.60;99.90
2721;DHT22;1368;49.484;11.112;2023-12-29T14:26:26;12.50;99.90
2721;DHT22;1368;49.484;11.112;2023-12-29T14:31:27;12.40;99.90
2721;DHT22;1368;49.484;11.112;2023-12-29T14:33:52;12.10;99.90
2721;DHT22;1368;49.484;11.112;2023-12-29T14:36:18;12.10;99.90
2721;DHT22;1368;49.484;11.112;2023-12-29T14:38:43;12.30;99.90
2721;DHT22;1368;49.484;11.112;2023-12-29T14:41:09;12.00;99.90
2721;DHT22;1368;49.484;11.112;2023-12-29T14:43:34;12.00;99.90
2721;DHT22;1368;49.484;11.112;2023-12-29T14:46:00;12.20;99.90
2721;DHT22;1368;49.484;11.112;2023-12-29T14:48:25;12.30;99.90
2721;DHT22;1368;49.484;11.112;2023-12-29T14:50:51;12.10;99.90
2721;DHT22;1368;49.484;11.112;2023-12-29T14:53:16;12.00;99.90
2721;DHT22;1368;49.484;11.112;2023-12-29T14:55:42;11.90;99.90
2721;DHT22;1368;49.484;11.112;2023-12-29T14:58:07;12.00;99.90
2721;DHT22;1368;49.484;11.112;2023-12-29T15:00:33;12.20;99.90
2721;DHT22;1368;49.484;11.112;2023-12-29T15:02:59;12.50;99.90
2721;DHT22;1368;49.484;11.112;2023-12-29T15:05:24;12.40;99.90
2721;DHT22;1368;49.484;11.112;2023-12-29T15:07:50;12.50;99.90
2721;DHT22;1368;49.484;11.112;2023-12-29T15:10:15;12.50;99.90
2721;DHT22;1368;49.484;11.112;2023-12-29T15:12:41;13.30;99.90
2721;DHT22;1368;49.484;11.112;2023-12-29T15:15:08;12.60;99.90
2721;DHT22;1368;49.484;11.112;2023-12-29T15:17:37;12.60;99.90
2721;DHT22;1368;49.484;11.112;2023-12-29T15:20:03;12.60;99.90
2721;DHT22;1368;49.484;11.112;2023-12-29T15:22:29;12.50;99.90
2721;DHT22;1368;49.484;11.112;2023-12-29T15:24:55;12.40;99.90
2721;DHT22;1368;49.484;11.112;2023-12-29T15:27:20;12.30;99.90
2721;DHT22;1368;49.484;11.112;2023-12-29T15:29:46;12.20;99.90
2721;DHT22;1368;49.484;11.112;2023-12-29T15:32:11;12.20;99.90
2721;DHT22;1368;49.484;11.112;2023-12-29T15:34:37;12.20;99.90
2721;DHT22;1368;49.484;11.112;2023-12-29T15:37:03;12.80;99.90
2721;DHT22;1368;49.484;11.112;2023-12-29T15:39:28;12.40;99.90
2721;DHT22;1368;49.484;11.112;2023-12-29T15:41:54;12.40;99.90
2721;DHT22;1368;49.484;11.112;2023-12-29T15:44:20;12.30;99.90
2721;DHT22;1368;49.484;11.112;2023-12-29T15:46:46;12.10;99.90
2721;DHT22;1368;49.484;11.112;2023-12-29T15:49:11;12.40;99.90
2721;DHT22;1368;49.484;11.112;2023-12-29T15:51:37;12.20;99.90
2721;DHT22;1368;49.484;11.112;2023-12-29T15:54:03;12.00;99.90
2721;DHT22;1368;49.484;11.112;2023-12-29T15:56:28;11.90;99.90
2721;DHT22;1368;49.484;11.112;2023-12-29T15:58:54;11.80;99.90
2721;DHT22;1368;49.484;11.112;2023-12-29T16:01:21;11.80;99.90
2721;DHT22;1368;49.484;11.112;2023-12-29T16:03:49;11.70;99.90
2721;DHT22;1368;49.484;11.112;2023-12-29T16:06:25;11.80;99.90
2721;DHT22;1368;49.484;11.112;2023-12-29T16:08:51;12.00;99.90